Tazewell, Virginia
Current Conditions -  °F | °C
As of 11:35 AM on Friday 28 Nov 2014 (Local Time) from KJFZ Reporting Station
Overcast Overcast  
Wind Chill: 21°   Ceiling: 1800
Heat Index: 27°   Visibility: 10mi
Dew Point: 19°   Wind: 6mph
Humidity: 70%   Direction: 250°WSW
Pressure: 30.3"   Gusts: NA
Location:  37.11°N, 81.52°W
Report Text: KJFZ 281635Z AUTO 25005KT 10SM OVC018 M03/M07 A3030 RMK AO2 T10271075
Loading
Personal Weather Stations






























Interactive Weather Map New forecast layout! Learn more

10-Day Weather Forecast

Advertisements
Track Severe Weather on mobile